Time;durP1;ratioP1;P1;durP2;ratioP2;P2;SDS_P1;SDS_P2;PMS_P1;PMS_P2;Temp;Humidity;BMP_temperature;BMP_pressure;BME280_temperature;BME280_humidity;BME280_pressure;Samples;Min_cycle;Max_cycle;Signal;HPM_P1;HPM_P2
2024/03/07 00:01:50;;;;;;;29.48;17.70;;;;;;;6.64;96.80;98661.81;5144181;22;20214;-83
2024/03/07 00:04:12;;;;;;;29.65;18.80;;;;;;;6.61;96.48;98661.13;5144287;22;20195;-83
2024/03/07 00:06:34;;;;;;;41.50;25.05;;;;;;;6.56;96.36;98653.53;5143620;22;20211;-83
2024/03/07 00:08:56;;;;;;;32.58;19.98;;;;;;;6.49;96.11;98658.22;5144007;22;20309;-90
2024/03/07 00:11:18;;;;;;;41.20;24.30;;;;;;;6.42;96.28;98655.06;5144874;22;20166;-90
2024/03/07 00:13:42;;;;;;;23.95;16.42;;;;;;;6.38;95.63;98658.69;5144686;22;20219;-90
2024/03/07 00:16:06;;;;;;;29.98;18.90;;;;;;;6.32;96.03;98656.34;5164974;22;20167;-90
2024/03/07 00:18:29;;;;;;;30.70;19.75;;;;;;;6.31;96.04;98653.81;5145505;22;20202;-90
2024/03/07 00:20:52;;;;;;;32.00;20.23;;;;;;;6.23;95.72;98648.97;5165923;22;20194;-90
2024/03/07 00:23:16;;;;;;;34.40;20.83;;;;;;;6.24;95.31;98661.00;5145170;22;20218;-89
2024/03/07 00:25:38;;;;;;;30.50;20.58;;;;;;;6.28;95.01;98653.94;5141960;22;20691;-90
2024/03/07 00:28:02;;;;;;;35.33;23.17;;;;;;;6.30;95.29;98658.16;5144139;22;20198;-87
2024/03/07 00:30:25;;;;;;;43.17;26.30;;;;;;;6.32;95.55;98658.94;5144461;22;20210;-90
2024/03/07 00:32:48;;;;;;;41.53;26.25;;;;;;;6.40;94.97;98664.63;5144248;22;20165;-89
2024/03/07 00:35:11;;;;;;;42.55;25.42;;;;;;;6.31;95.17;98657.25;5142251;22;20195;-89
2024/03/07 00:37:33;;;;;;;47.22;27.95;;;;;;;6.36;94.07;98654.47;5162111;22;20603;-90
2024/03/07 00:39:55;;;;;;;44.17;27.02;;;;;;;6.42;94.60;98649.00;5140939;22;20168;-89
2024/03/07 00:42:18;;;;;;;49.10;28.73;;;;;;;6.40;94.49;98650.84;5185695;22;20234;-89
2024/03/07 00:44:39;;;;;;;45.90;27.98;;;;;;;6.42;93.38;98655.06;5185888;22;20190;-88
2024/03/07 00:47:01;;;;;;;33.97;21.70;;;;;;;6.42;94.46;98655.06;5138691;22;20169;-89
2024/03/07 00:49:25;;;;;;;37.40;23.98;;;;;;;6.34;93.40;98653.69;5163162;22;20166;-88
2024/03/07 00:51:48;;;;;;;48.75;28.08;;;;;;;6.31;92.74;98644.28;5142099;22;20178;-89
2024/03/07 00:54:12;;;;;;;33.17;21.30;;;;;;;6.35;93.72;98653.63;5144133;22;20218;-88
2024/03/07 00:56:36;;;;;;;35.55;22.40;;;;;;;6.31;93.26;98651.22;5165548;22;20162;-88
2024/03/07 00:58:58;;;;;;;36.85;22.25;;;;;;;6.30;93.52;98644.34;5165933;22;20192;-88
2024/03/07 01:01:20;;;;;;;43.45;25.13;;;;;;;6.25;93.12;98639.38;5166783;22;20784;-88
2024/03/07 01:03:42;;;;;;;40.28;23.33;;;;;;;6.21;93.79;98645.63;5144150;22;20211;-89
2024/03/07 01:06:05;;;;;;;35.90;20.95;;;;;;;6.23;93.61;98643.78;5143870;22;20197;-89
2024/03/07 01:08:28;;;;;;;33.80;19.80;;;;;;;6.23;93.22;98632.59;5144831;22;20198;-89
2024/03/07 01:10:50;;;;;;;36.65;22.92;;;;;;;6.20;92.75;98628.38;5145328;22;20643;-89
2024/03/07 01:13:18;;;;;;;38.05;23.90;;;;;;;6.18;92.95;98625.03;5165443;22;20173;-89
2024/03/07 01:15:40;;;;;;;47.75;28.90;;;;;;;6.13;92.12;98628.69;5165566;22;20165;-88
2024/03/07 01:18:02;;;;;;;49.70;29.35;;;;;;;6.19;92.59;98631.03;5166015;22;20945;-88
2024/03/07 01:20:25;;;;;;;48.72;28.60;;;;;;;6.23;92.55;98627.41;5165979;22;20218;-82
2024/03/07 01:22:51;;;;;;;44.42;28.02;;;;;;;6.23;92.23;98630.00;5165832;22;20161;-83
2024/03/07 01:25:13;;;;;;;43.28;27.67;;;;;;;6.13;91.47;98619.22;5187579;22;20542;-82
2024/03/07 01:27:35;;;;;;;42.35;25.85;;;;;;;6.13;91.67;98624.38;5189069;22;20617;-83
2024/03/07 01:29:57;;;;;;;44.45;26.50;;;;;;;6.14;91.92;98623.47;5143806;22;20163;-84
2024/03/07 01:32:20;;;;;;;47.33;28.02;;;;;;;6.17;91.31;98628.50;5145439;22;20219;-83
2024/03/07 01:34:42;;;;;;;45.92;28.52;;;;;;;6.17;91.48;98627.69;5165117;22;20225;-83
2024/03/07 01:37:04;;;;;;;46.75;28.38;;;;;;;6.16;90.40;98621.66;5144211;22;20207;-83
2024/03/07 01:39:31;;;;;;;45.97;27.80;;;;;;;6.16;90.06;98621.66;5167622;22;20184;-83
2024/03/07 01:41:53;;;;;;;41.53;27.35;;;;;;;6.18;90.51;98617.25;5144637;22;20238;-84
2024/03/07 01:44:16;;;;;;;45.53;29.08;;;;;;;6.18;90.58;98609.50;5166840;22;20213;-83
2024/03/07 01:46:38;;;;;;;44.53;27.98;;;;;;;6.21;90.77;98603.34;5167412;22;20168;-83
2024/03/07 01:49:00;;;;;;;46.17;27.77;;;;;;;6.19;89.63;98611.19;5166883;22;20204;-83
2024/03/07 01:51:22;;;;;;;44.03;27.25;;;;;;;6.21;89.38;98606.78;5167557;22;20224;-83
2024/03/07 01:53:45;;;;;;;47.60;26.75;;;;;;;6.19;89.07;98603.41;5145040;22;20514;-83
2024/03/07 01:56:09;;;;;;;45.25;28.08;;;;;;;6.21;89.39;98604.19;5167157;22;20188;-83
2024/03/07 01:58:32;;;;;;;41.42;27.33;;;;;;;6.21;89.71;98593.81;5167557;22;20194;-82
2024/03/07 02:00:55;;;;;;;46.30;28.20;;;;;;;6.20;89.59;98599.91;5146181;22;20521;-84
2024/03/07 02:03:17;;;;;;;42.72;26.77;;;;;;;6.21;90.24;98591.22;5166872;22;20708;-84
2024/03/07 02:05:39;;;;;;;40.55;26.33;;;;;;;6.00;89.99;98593.03;5144656;22;20193;-83
2024/03/07 02:08:02;;;;;;;43.30;26.67;;;;;;;5.93;90.74;98596.81;5167781;22;20224;-83
2024/03/07 02:10:24;;;;;;;46.72;28.17;;;;;;;5.92;91.03;98595.94;5145613;22;20274;-83
2024/03/07 02:12:47;;;;;;;46.65;27.67;;;;;;;5.93;91.19;98589.06;5166996;22;20262;-84
2024/03/07 02:15:09;;;;;;;42.60;26.08;;;;;;;5.88;91.82;98593.56;5166454;22;20172;-83
2024/03/07 02:17:31;;;;;;;43.75;25.90;;;;;;;5.85;91.77;98588.50;5144929;22;20162;-83
2024/03/07 02:19:54;;;;;;;49.85;26.35;;;;;;;5.83;91.57;98595.50;5144280;22;20236;-84
2024/03/07 02:22:17;;;;;;;42.47;25.80;;;;;;;5.77;91.21;98581.09;5167038;22;20166;-83
2024/03/07 02:24:39;;;;;;;44.50;26.13;;;;;;;5.78;91.86;98581.94;5167130;22;20241;-83
2024/03/07 02:27:01;;;;;;;43.10;25.98;;;;;;;5.78;92.08;98581.94;5165823;22;20165;-83
2024/03/07 02:29:23;;;;;;;47.22;26.38;;;;;;;5.73;91.72;98573.50;5167806;22;20544;-83
2024/03/07 02:31:47;;;;;;;41.58;26.27;;;;;;;5.71;92.12;98567.50;5167877;22;20454;-83
2024/03/07 02:34:09;;;;;;;41.80;25.80;;;;;;;5.71;92.29;98573.56;5167125;22;20229;-84
2024/03/07 02:36:32;;;;;;;45.17;26.73;;;;;;;5.71;92.01;98573.56;5165766;22;21041;-83
2024/03/07 02:38:55;;;;;;;46.03;26.35;;;;;;;5.69;92.06;98577.94;5146461;22;20174;-83
2024/03/07 02:41:17;;;;;;;44.92;26.95;;;;;;;5.60;92.00;98568.88;5166277;22;20236;-82
2024/03/07 02:43:38;;;;;;;46.40;26.50;;;;;;;5.55;92.20;98573.38;5145418;22;20164;-82
2024/03/07 02:46:01;;;;;;;40.15;24.13;;;;;;;5.47;92.03;98565.09;5165729;22;20302;-83
2024/03/07 02:48:23;;;;;;;43.72;23.98;;;;;;;5.39;91.42;98562.81;5190036;22;20264;-83
2024/03/07 02:50:45;;;;;;;41.20;24.00;;;;;;;5.37;92.16;98562.06;5145892;22;20170;-83
2024/03/07 02:53:07;;;;;;;42.13;25.75;;;;;;;5.36;91.76;98564.69;5166094;22;20165;-83
2024/03/07 02:55:30;;;;;;;44.58;26.90;;;;;;;5.31;92.80;98557.13;5166701;22;20212;-82
2024/03/07 02:57:53;;;;;;;46.45;26.58;;;;;;;5.29;92.96;98566.69;5146273;22;20217;-83
2024/03/07 03:00:20;;;;;;;46.30;26.35;;;;;;;5.29;93.55;98558.09;5144744;22;20246;-83
2024/03/07 03:02:42;;;;;;;43.45;25.98;;;;;;;5.27;92.88;98558.16;5166829;22;20659;-84
2024/03/07 03:05:09;;;;;;;39.33;24.27;;;;;;;5.23;92.97;98559.19;5145048;22;20194;-82
2024/03/07 03:07:31;;;;;;;40.22;24.40;;;;;;;5.21;93.12;98554.97;5145322;22;20163;-83
2024/03/07 03:09:53;;;;;;;42.60;25.48;;;;;;;5.20;93.02;98556.72;5144898;22;20226;-83
2024/03/07 03:12:17;;;;;;;44.78;26.75;;;;;;;5.18;93.54;98557.69;5145217;22;21085;-82
2024/03/07 03:14:39;;;;;;;43.78;25.45;;;;;;;5.13;93.15;98565.63;5167365;22;20244;-83
2024/03/07 03:17:02;;;;;;;41.83;25.02;;;;;;;5.02;93.37;98558.34;5143807;22;20241;-83
2024/03/07 03:19:26;;;;;;;48.15;27.23;;;;;;;5.01;93.05;98561.84;5165676;22;20725;-83
2024/03/07 03:21:48;;;;;;;42.60;25.30;;;;;;;4.93;92.40;98556.09;5166814;22;20593;-83
2024/03/07 03:24:10;;;;;;;41.40;24.90;;;;;;;4.91;93.57;98558.75;5145827;22;20243;-83
2024/03/07 03:26:35;;;;;;;42.08;26.10;;;;;;;4.93;92.83;98556.09;5143392;22;20241;-83
2024/03/07 03:28:58;;;;;;;40.47;24.48;;;;;;;4.87;93.81;98564.97;5145318;22;20169;-83
2024/03/07 03:31:20;;;;;;;42.97;25.95;;;;;;;4.84;93.96;98566.78;5167249;22;20218;-83
2024/03/07 03:33:43;;;;;;;43.63;25.17;;;;;;;4.82;93.81;98560.84;5145194;22;20201;-83
2024/03/07 03:36:05;;;;;;;42.25;24.90;;;;;;;4.78;93.05;98557.56;5166815;22;20164;-82
2024/03/07 03:38:27;;;;;;;42.88;24.63;;;;;;;4.76;93.14;98561.09;5166773;22;20205;-83
2024/03/07 03:40:49;;;;;;;41.10;26.40;;;;;;;4.75;92.88;98559.38;5166668;22;20183;-82
2024/03/07 03:43:11;;;;;;;46.90;26.63;;;;;;;4.74;93.88;98561.13;5144527;22;20166;-83
2024/03/07 03:45:35;;;;;;;47.72;26.83;;;;;;;4.70;93.71;98558.72;5145226;22;20238;-82
2024/03/07 03:47:57;;;;;;;41.28;25.10;;;;;;;4.64;93.45;98556.38;5144925;22;20173;-84
2024/03/07 03:50:19;;;;;;;43.33;24.88;;;;;;;4.54;92.39;98552.47;5166931;22;20246;-82
2024/03/07 03:52:42;;;;;;;39.85;23.70;;;;;;;4.46;91.45;98554.47;5145644;22;20236;-83
2024/03/07 03:55:05;;;;;;;39.72;23.02;;;;;;;4.37;90.51;98547.06;5145279;22;20189;-82
2024/03/07 03:57:28;;;;;;;39.45;23.42;;;;;;;4.30;91.54;98543.06;5190193;22;20231;-83
2024/03/07 03:59:50;;;;;;;38.33;22.40;;;;;;;4.29;91.79;98541.34;5145237;22;20221;-83
2024/03/07 04:02:16;;;;;;;40.70;24.55;;;;;;;4.23;91.35;98541.56;5145687;22;20629;-82
2024/03/07 04:04:39;;;;;;;43.83;25.10;;;;;;;4.20;92.23;98542.59;5144269;22;20303;-83
2024/03/07 04:07:03;;;;;;;44.92;25.05;;;;;;;4.20;91.72;98540.03;5166530;22;20276;-84
2024/03/07 04:09:26;;;;;;;49.35;25.30;;;;;;;4.20;92.62;98542.59;5145310;22;20220;-83
2024/03/07 04:11:47;;;;;;;42.90;24.15;;;;;;;4.20;92.46;98541.69;5166688;22;20212;-83
2024/03/07 04:14:10;;;;;;;47.97;25.30;;;;;;;4.19;93.70;98544.31;5144149;22;20197;-83
2024/03/07 04:16:32;;;;;;;43.15;24.58;;;;;;;4.19;93.50;98543.50;5144253;22;20166;-83
2024/03/07 04:18:55;;;;;;;45.63;26.95;;;;;;;4.18;93.55;98537.50;5188720;22;20164;-83
2024/03/07 04:21:20;;;;;;;44.80;25.67;;;;;;;4.22;94.29;98539.91;5145128;22;20233;-83
2024/03/07 04:23:42;;;;;;;44.78;25.00;;;;;;;4.25;93.93;98539.81;5145387;22;20713;-84
2024/03/07 04:26:04;;;;;;;41.17;23.98;;;;;;;4.23;93.23;98546.75;5165944;22;20570;-83
2024/03/07 04:28:27;;;;;;;45.80;24.75;;;;;;;4.19;92.75;98546.06;5188895;22;20177;-84
2024/03/07 04:30:49;;;;;;;41.20;24.80;;;;;;;4.12;93.00;98542.00;5166535;22;20530;-82
2024/03/07 04:33:13;;;;;;;42.33;23.90;;;;;;;4.11;93.82;98538.59;5166628;22;20244;-83
2024/03/07 04:35:37;;;;;;;40.70;23.45;;;;;;;4.13;93.96;98544.53;5143571;22;20649;-82
2024/03/07 04:37:58;;;;;;;42.63;25.63;;;;;;;4.15;94.47;98545.34;5166509;22;20264;-83
2024/03/07 04:40:21;;;;;;;40.40;23.52;;;;;;;4.12;93.33;98547.19;5165895;22;20688;-82
2024/03/07 04:42:44;;;;;;;43.55;25.13;;;;;;;4.10;93.62;98543.81;5188924;22;20211;-83
2024/03/07 04:45:10;;;;;;;40.28;23.23;;;;;;;4.07;93.50;98537.03;5142705;22;20159;-84
2024/03/07 04:47:34;;;;;;;37.63;23.63;;;;;;;4.05;92.95;98543.16;5143400;22;20188;-83
2024/03/07 04:49:56;;;;;;;40.65;22.55;;;;;;;4.03;92.52;98542.34;5166859;22;20197;-89
2024/03/07 04:52:19;;;;;;;38.60;22.65;;;;;;;4.00;93.83;98537.28;5165518;22;20537;-89
2024/03/07 04:54:41;;;;;;;44.28;25.77;;;;;;;4.02;93.15;98545.84;5143702;22;20166;-88
2024/03/07 04:57:03;;;;;;;39.00;23.52;;;;;;;3.98;93.07;98541.66;5144764;22;20588;-88
2024/03/07 04:59:25;;;;;;;45.38;23.88;;;;;;;3.97;92.78;98542.56;5165872;22;20649;-89
2024/03/07 05:01:49;;;;;;;46.25;24.25;;;;;;;3.94;92.77;98537.50;5145310;22;20238;-89
2024/03/07 05:04:12;;;;;;;56.10;24.33;;;;;;;3.89;93.32;98537.69;5165912;22;20191;-89
2024/03/07 05:06:35;;;;;;;56.80;23.55;;;;;;;3.87;93.17;98542.03;5143753;22;20435;-89
2024/03/07 05:08:58;;;;;;;54.00;25.40;;;;;;;3.85;93.71;98538.69;5144918;22;20250;-89
2024/03/07 05:11:21;;;;;;;65.00;25.98;;;;;;;3.86;94.22;98544.69;5167139;22;20180;-89
2024/03/07 05:13:43;;;;;;;47.03;25.20;;;;;;;3.85;93.92;98540.44;5187811;22;20717;-90
2024/03/07 05:16:06;;;;;;;58.20;25.10;;;;;;;3.83;93.71;98543.06;5143209;22;20228;-85
2024/03/07 05:18:28;;;;;;;78.65;26.15;;;;;;;3.80;93.76;98542.31;5146435;22;20194;-91
2024/03/07 05:20:50;;;;;;;68.65;26.45;;;;;;;3.75;94.33;98537.31;5168275;22;20236;-91
2024/03/07 05:23:13;;;;;;;75.97;24.55;;;;;;;3.74;94.00;98532.19;5167482;22;20238;-89
2024/03/07 05:25:40;;;;;;;68.53;25.27;;;;;;;3.72;93.57;98536.59;5167532;22;20514;-88
2024/03/07 05:28:02;;;;;;;41.85;22.13;;;;;;;3.69;93.58;98541.84;5166050;22;20283;-88
2024/03/07 05:30:25;;;;;;;46.65;23.20;;;;;;;3.69;93.72;98528.13;5168206;22;20240;-89
2024/03/07 05:32:47;;;;;;;42.28;21.85;;;;;;;3.65;94.27;98540.25;5187224;22;20168;-89
2024/03/07 05:35:11;;;;;;;40.72;21.15;;;;;;;3.63;94.55;98530.91;5145809;22;20193;-90
2024/03/07 05:37:33;;;;;;;34.05;20.90;;;;;;;3.63;94.07;98536.91;5165377;22;20165;-86
2024/03/07 05:39:55;;;;;;;37.45;20.88;;;;;;;3.63;94.41;98536.06;5146093;22;20169;-88
2024/03/07 05:42:19;;;;;;;37.63;22.17;;;;;;;3.68;94.70;98531.59;5164617;22;20187;-87
2024/03/07 05:44:41;;;;;;;38.40;23.10;;;;;;;3.68;94.45;98529.84;5163874;22;20718;-87
2024/03/07 05:47:04;;;;;;;41.53;22.88;;;;;;;3.66;93.67;98531.63;5165880;22;20404;-87
2024/03/07 05:49:26;;;;;;;38.78;22.38;;;;;;;3.61;93.08;98530.97;5146307;22;20665;-87
2024/03/07 05:51:48;;;;;;;45.65;21.70;;;;;;;3.55;92.74;98533.75;5167451;22;20168;-86
2024/03/07 05:54:10;;;;;;;40.22;23.13;;;;;;;3.52;93.17;98523.53;5189056;22;20575;-90
2024/03/07 05:56:32;;;;;;;36.92;21.73;;;;;;;3.53;93.12;98520.03;5166470;22;20165;-84
2024/03/07 05:58:56;;;;;;;35.25;21.83;;;;;;;3.55;93.38;98522.56;5145507;22;20221;-86
2024/03/07 06:01:18;;;;;;;37.55;21.60;;;;;;;3.56;93.30;98526.84;5146311;22;20208;-85
2024/03/07 06:03:40;;;;;;;33.67;21.02;;;;;;;3.49;91.86;98528.78;5167587;22;20165;-85
2024/03/07 06:06:04;;;;;;;36.15;22.30;;;;;;;3.45;91.84;98523.78;5145348;22;20271;-85
2024/03/07 06:08:27;;;;;;;36.53;21.02;;;;;;;3.51;91.73;98521.00;5190316;22;20191;-86
2024/03/07 06:10:50;;;;;;;37.55;22.75;;;;;;;3.58;92.36;98522.47;5146148;22;20200;-85
2024/03/07 06:13:13;;;;;;;35.05;20.67;;;;;;;3.60;92.79;98518.13;5166674;22;20164;-84
2024/03/07 06:15:36;;;;;;;36.70;22.10;;;;;;;3.69;92.93;98523.78;5166431;22;20609;-85
2024/03/07 06:17:59;;;;;;;36.72;22.27;;;;;;;3.76;93.00;98526.13;5167268;22;20207;-84
2024/03/07 06:20:24;;;;;;;38.78;22.70;;;;;;;3.84;91.88;98526.69;5145372;22;20564;-85
2024/03/07 06:22:46;;;;;;;36.25;22.83;;;;;;;3.97;93.05;98527.06;5167240;22;20161;-84
2024/03/07 06:25:18;;;;;;;38.10;23.90;;;;;;;4.08;92.14;98527.56;5165790;22;20180;-84
2024/03/07 06:27:48;;;;;;;42.60;24.05;;;;;;;4.20;92.58;98529.69;5167113;22;20188;-85
2024/03/07 06:30:13;;;;;;;37.53;22.70;;;;;;;4.32;91.55;98530.09;5145393;22;20218;-83
2024/03/07 06:32:37;;;;;;;38.97;22.42;;;;;;;4.43;92.51;98528.78;5145611;22;20224;-84
2024/03/07 06:35:01;;;;;;;35.05;22.08;;;;;;;4.54;91.35;98531.81;5145229;22;20850;-86
2024/03/07 06:37:22;;;;;;;37.03;22.23;;;;;;;4.68;91.07;98533.88;5165666;22;20233;-86
2024/03/07 06:39:44;;;;;;;34.58;20.70;;;;;;;4.83;91.12;98534.13;5145222;22;20591;-88
2024/03/07 06:42:06;;;;;;;35.50;21.90;;;;;;;4.97;90.55;98537.00;5166606;22;20523;-88
2024/03/07 06:44:29;;;;;;;35.42;21.95;;;;;;;5.12;90.31;98544.16;5144728;22;20221;-88
2024/03/07 06:46:53;;;;;;;33.55;21.25;;;;;;;5.24;90.12;98549.69;5145153;22;20166;-87
2024/03/07 06:49:16;;;;;;;30.88;20.23;;;;;;;5.40;89.18;98553.34;5143717;22;20233;-89
2024/03/07 06:51:39;;;;;;;34.53;21.10;;;;;;;5.54;88.45;98551.84;5145926;22;20661;-89
2024/03/07 06:54:01;;;;;;;35.60;20.58;;;;;;;5.66;88.99;98556.53;5145245;22;20170;-88
2024/03/07 06:56:25;;;;;;;32.90;20.60;;;;;;;5.80;88.65;98562.84;5144976;22;20169;-89
2024/03/07 06:58:48;;;;;;;34.92;20.50;;;;;;;5.94;86.71;98557.06;5189375;22;20188;-89
2024/03/07 07:01:15;;;;;;;31.42;19.88;;;;;;;6.09;83.76;98558.09;5166779;22;20168;-88
2024/03/07 07:03:37;;;;;;;31.60;20.00;;;;;;;6.23;83.97;98560.09;5167245;22;20209;-88
2024/03/07 07:06:00;;;;;;;31.35;19.58;;;;;;;6.38;84.58;98555.06;5144618;22;20707;-89
2024/03/07 07:08:23;;;;;;;32.05;20.73;;;;;;;6.45;81.82;98559.09;5144649;22;20221;-89
2024/03/07 07:10:47;;;;;;;28.20;19.23;;;;;;;6.52;81.15;98557.88;5188827;22;20165;-84
2024/03/07 07:13:10;;;;;;;28.52;19.33;;;;;;;6.65;82.37;98559.84;5167196;22;20322;-83
2024/03/07 07:15:32;;;;;;;29.20;19.00;;;;;;;6.81;82.33;98563.44;5187638;22;20449;-85
2024/03/07 07:17:54;;;;;;;32.53;20.52;;;;;;;6.95;81.06;98561.03;5165843;22;20548;-84
2024/03/07 07:20:17;;;;;;;33.65;20.77;;;;;;;7.11;83.06;98564.59;5166169;22;20178;-84
2024/03/07 07:22:41;;;;;;;30.67;20.52;;;;;;;7.17;81.12;98566.88;5166206;22;20209;-83
2024/03/07 07:25:04;;;;;;;31.52;21.23;;;;;;;7.24;80.24;98566.53;5189466;22;20224;-83
2024/03/07 07:27:27;;;;;;;30.60;18.88;;;;;;;7.25;82.62;98557.03;5166029;22;20169;-83
2024/03/07 07:29:49;;;;;;;30.00;18.25;;;;;;;7.31;84.86;98559.31;5144348;22;20158;-83
2024/03/07 07:32:12;;;;;;;28.90;19.45;;;;;;;7.24;81.82;98561.34;5165263;22;20651;-84
2024/03/07 07:34:34;;;;;;;28.02;19.15;;;;;;;7.08;81.91;98555.22;5165880;22;20170;-83
2024/03/07 07:36:56;;;;;;;27.00;18.10;;;;;;;6.95;81.13;98547.25;5144229;22;20702;-83
2024/03/07 07:39:19;;;;;;;28.42;18.95;;;;;;;6.83;81.04;98555.59;5188715;22;20167;-83
2024/03/07 07:41:41;;;;;;;26.88;18.88;;;;;;;6.56;79.77;98544.72;5144677;22;20244;-83
2024/03/07 07:44:03;;;;;;;27.25;17.88;;;;;;;6.43;81.32;98542.75;5165834;22;20174;-83
2024/03/07 07:46:25;;;;;;;28.00;17.30;;;;;;;6.37;82.04;98537.00;5144289;22;20490;-83
2024/03/07 07:48:47;;;;;;;27.17;18.17;;;;;;;6.42;82.86;98529.88;5144518;22;20190;-83
2024/03/07 07:51:09;;;;;;;27.67;18.40;;;;;;;6.37;82.03;98532.66;5166341;22;20213;-84
2024/03/07 07:53:31;;;;;;;25.75;18.10;;;;;;;6.30;81.70;98522.66;5165835;22;20165;-83
2024/03/07 07:55:55;;;;;;;27.85;18.65;;;;;;;6.23;81.74;98529.03;5144285;22;20714;-84
2024/03/07 07:58:16;;;;;;;23.02;16.25;;;;;;;6.10;82.16;98526.16;5165784;22;20214;-85
2024/03/07 08:00:38;;;;;;;26.75;18.35;;;;;;;6.04;82.83;98522.13;5145471;22;20165;-84
2024/03/07 08:03:01;;;;;;;26.70;16.65;;;;;;;6.05;83.10;98523.81;5145067;22;20162;-84
2024/03/07 08:05:25;;;;;;;25.58;16.83;;;;;;;6.04;81.91;98527.31;5166156;22;20213;-84
2024/03/07 08:07:47;;;;;;;27.20;16.85;;;;;;;6.08;83.22;98521.09;5166749;22;20590;-84
2024/03/07 08:10:10;;;;;;;28.80;17.40;;;;;;;6.06;83.39;98520.31;5166965;22;20167;-84
2024/03/07 08:12:33;;;;;;;28.35;17.88;;;;;;;6.05;82.89;98514.28;5166680;22;20157;-84
2024/03/07 08:14:54;;;;;;;25.52;16.38;;;;;;;6.14;84.28;98519.91;5144893;22;20216;-84
2024/03/07 08:17:16;;;;;;;27.35;17.90;;;;;;;6.14;83.05;98519.06;5145036;22;20610;-84
2024/03/07 08:19:39;;;;;;;27.13;18.15;;;;;;;6.11;83.34;98520.03;5167308;22;20599;-89
2024/03/07 08:22:01;;;;;;;26.00;17.75;;;;;;;6.12;83.53;98513.97;5167035;22;20160;-89
2024/03/07 08:24:24;;;;;;;30.05;17.48;;;;;;;6.08;83.33;98522.75;5165583;22;20250;-89
2024/03/07 08:26:46;;;;;;;26.98;17.88;;;;;;;6.14;83.69;98519.91;5166085;22;20288;-91
2024/03/07 08:29:11;;;;;;;29.58;19.63;;;;;;;6.24;84.41;98517.75;5166580;22;20735;-90
2024/03/07 08:31:33;;;;;;;27.55;17.40;;;;;;;6.29;82.88;98516.63;5165463;22;20246;-89
2024/03/07 08:33:55;;;;;;;27.05;17.80;;;;;;;6.43;83.60;98522.03;5167175;22;20777;-90
2024/03/07 08:36:17;;;;;;;31.60;18.50;;;;;;;6.54;83.24;98524.13;5144546;22;20201;-88
2024/03/07 08:38:39;;;;;;;27.75;18.20;;;;;;;6.62;82.68;98517.72;5145940;22;20162;-90
2024/03/07 08:41:01;;;;;;;26.42;17.67;;;;;;;6.76;83.36;98515.31;5189269;22;20631;-89
2024/03/07 08:43:22;;;;;;;30.30;18.83;;;;;;;6.82;82.01;98515.03;5167294;22;20169;-91
2024/03/07 08:45:45;;;;;;;26.67;17.55;;;;;;;6.78;82.77;98516.06;5144331;22;20221;-90
2024/03/07 08:48:08;;;;;;;28.70;18.50;;;;;;;6.75;81.93;98514.47;5168233;22;20177;-89
2024/03/07 08:50:33;;;;;;;26.88;18.15;;;;;;;6.91;84.01;98515.44;5169886;22;20212;-89
2024/03/07 08:52:56;;;;;;;28.70;18.25;;;;;;;7.01;82.93;98514.09;5146133;22;20172;-90
2024/03/07 08:55:21;;;;;;;30.00;19.13;;;;;;;7.07;82.79;98517.22;5168149;22;20294;-89
2024/03/07 08:57:45;;;;;;;31.17;20.52;;;;;;;7.11;82.57;98518.78;5168146;22;20188;-92
2024/03/07 09:00:10;;;;;;;29.42;20.10;;;;;;;7.09;81.83;98517.97;5171282;22;20208;-87
2024/03/07 09:02:34;;;;;;;31.55;20.60;;;;;;;7.13;83.04;98510.91;5169606;22;20180;-91
2024/03/07 09:04:56;;;;;;;32.05;20.65;;;;;;;7.21;83.21;98511.38;5147414;22;20167;-90
2024/03/07 09:07:18;;;;;;;30.48;21.27;;;;;;;7.49;79.98;98512.56;5192517;22;20298;-91
2024/03/07 09:09:42;;;;;;;31.40;19.95;;;;;;;7.65;82.35;98510.88;5148849;22;20665;-91
2024/03/07 09:12:06;;;;;;;30.48;19.60;;;;;;;7.82;81.08;98513.44;5147069;22;20164;-90
2024/03/07 09:14:28;;;;;;;28.90;19.63;;;;;;;7.85;79.92;98501.16;5149730;22;20223;-91
2024/03/07 09:16:51;;;;;;;28.48;18.77;;;;;;;8.19;78.79;98507.16;5170548;22;20648;-92
2024/03/07 09:19:14;;;;;;;30.20;19.80;;;;;;;8.51;79.66;98506.31;5171330;22;20515;-89
2024/03/07 09:21:36;;;;;;;30.25;19.40;;;;;;;8.73;80.12;98512.00;5169008;22;20168;-92
2024/03/07 09:23:58;;;;;;;31.48;20.33;;;;;;;8.82;78.87;98504.53;5147051;22;20505;-89
2024/03/07 09:26:21;;;;;;;28.77;18.60;;;;;;;9.01;80.39;98515.63;5146335;22;20168;-90
2024/03/07 09:28:43;;;;;;;31.27;20.58;;;;;;;9.19;78.85;98522.41;5168182;22;20165;-90
2024/03/07 09:31:05;;;;;;;30.17;19.30;;;;;;;9.22;76.88;98514.44;5166991;22;20213;-90
2024/03/07 09:33:28;;;;;;;32.80;20.38;;;;;;;9.19;74.55;98501.59;5191204;22;20234;-89
2024/03/07 09:35:52;;;;;;;31.48;19.92;;;;;;;9.30;77.20;98504.44;5144300;22;20838;-90
2024/03/07 09:38:14;;;;;;;31.27;21.80;;;;;;;9.24;76.00;98505.59;5146088;22;20232;-90
2024/03/07 09:40:37;;;;;;;28.30;19.98;;;;;;;9.41;77.54;98497.66;5145310;22;20210;-90
2024/03/07 09:43:01;;;;;;;27.75;18.90;;;;;;;9.66;75.99;98511.78;5145321;22;20212;-88
2024/03/07 09:45:24;;;;;;;29.55;19.25;;;;;;;9.66;75.32;98503.97;5189617;22;20159;-90
2024/03/07 09:47:48;;;;;;;33.35;20.45;;;;;;;9.61;73.94;98500.00;5166847;22;20176;-90
2024/03/07 09:50:11;;;;;;;30.73;20.20;;;;;;;9.59;76.54;98497.47;5188787;22;20187;-89
2024/03/07 09:52:35;;;;;;;35.88;22.17;;;;;;;9.64;75.71;98499.81;5167676;22;20244;-90
2024/03/07 09:54:58;;;;;;;32.97;21.73;;;;;;;9.75;75.51;98489.59;5189676;22;20160;-87
2024/03/07 09:57:20;;;;;;;33.90;21.23;;;;;;;9.86;76.14;98496.69;5166441;22;20241;-89
2024/03/07 09:59:44;;;;;;;36.65;21.80;;;;;;;10.03;76.56;98493.94;5166740;22;20241;-89
2024/03/07 10:02:07;;;;;;;29.50;20.35;;;;;;;10.00;74.85;98503.72;5167753;22;20165;-90
2024/03/07 10:04:31;;;;;;;31.05;20.83;;;;;;;9.94;75.59;98501.50;5167142;22;20187;-90
2024/03/07 10:06:53;;;;;;;29.98;20.00;;;;;;;9.67;74.65;98495.25;5167438;22;20195;-90
2024/03/07 10:09:17;;;;;;;31.17;20.58;;;;;;;9.49;75.50;98490.28;5168368;22;20180;-90
2024/03/07 10:11:39;;;;;;;31.23;19.98;;;;;;;9.57;76.53;98493.28;5146237;22;20233;-89
2024/03/07 10:14:03;;;;;;;29.35;20.33;;;;;;;9.59;76.67;98491.41;5145123;22;20656;-90
2024/03/07 10:16:27;;;;;;;35.08;21.38;;;;;;;9.44;75.48;98482.72;5145388;22;20206;-90
2024/03/07 10:18:50;;;;;;;31.92;20.88;;;;;;;9.32;75.74;98473.94;5146097;22;20168;-89
2024/03/07 10:21:14;;;;;;;32.58;20.85;;;;;;;9.16;76.34;98471.38;5146530;22;20180;-89
2024/03/07 10:23:35;;;;;;;28.92;20.10;;;;;;;9.31;76.31;98486.13;5167644;22;20233;-90
2024/03/07 10:25:59;;;;;;;34.63;20.75;;;;;;;9.15;75.96;98482.69;5145226;22;20197;-90
2024/03/07 10:28:21;;;;;;;35.17;22.40;;;;;;;9.11;76.91;98489.03;5168585;22;20160;-90
2024/03/07 10:30:45;;;;;;;31.83;21.15;;;;;;;8.97;76.28;98480.28;5190411;22;20702;-90
2024/03/07 10:33:08;;;;;;;35.67;25.30;;;;;;;8.92;77.08;98479.72;5167852;22;20172;-89
2024/03/07 10:35:30;;;;;;;30.45;20.40;;;;;;;8.84;77.53;98481.06;5165867;22;20559;-89
2024/03/07 10:37:54;;;;;;;34.22;21.33;;;;;;;8.64;77.55;98478.72;5146437;22;20854;-89
2024/03/07 10:40:17;;;;;;;29.85;19.77;;;;;;;8.48;77.18;98480.50;5146550;22;20256;-84
2024/03/07 10:42:45;;;;;;;33.08;20.08;;;;;;;8.60;77.57;98479.78;5145990;22;20169;-86
2024/03/07 10:45:10;;;;;;;36.65;21.38;;;;;;;8.64;77.60;98465.72;5145279;22;20212;-85
2024/03/07 10:47:35;;;;;;;30.60;20.23;;;;;;;8.54;77.64;98474.97;5144099;22;20950;-87
2024/03/07 10:50:12;;;;;;;31.38;21.25;;;;;;;8.56;77.57;98462.72;5166935;22;20267;-88
2024/03/07 10:52:39;;;;;;;31.27;20.73;;;;;;;8.71;78.10;98467.06;5146380;22;20378;-88
2024/03/07 10:55:10;;;;;;;35.17;22.00;;;;;;;8.78;78.75;98473.59;5166731;22;20325;-87
2024/03/07 10:57:42;;;;;;;31.60;21.23;;;;;;;8.73;77.19;98465.22;5189814;22;20216;-88
2024/03/07 11:00:27;;;;;;;34.15;22.70;;;;;;;8.79;78.66;98463.09;5167422;22;20220;-87
2024/03/07 11:02:53;;;;;;;31.02;21.05;;;;;;;8.88;78.01;98464.38;5190205;22;20611;-88
2024/03/07 11:05:15;;;;;;;31.65;20.25;;;;;;;9.03;77.93;98459.16;5189420;22;20167;-88